KRNT - Renton
Updated: Sat, 23-Feb-2019 2:53am PST

 Wind from SSE
Wind: SSE 8 mph , 13 km/h
Temperature: 39°F , 4°C
Wind Chill: 33°F , 1°C
Dew Point: 34°F , 1°C
Humidity: 81%
Barometer: 30.07 inHg , 1018.3 hPa
Visibility: 10 miles , 16 km
Cloud details: 1800 ft
2019/02/23 10:53 KRNT 231053Z AUTO 16007KT 10SM OVC018 04/01 A3007 RMK AO2 SLP187 T00440006
KBFI - Seattle-Boeing
Updated: Sat, 23-Feb-2019 2:53am PST

 Wind from S
Wind: S 6 mph , 9 km/h
Temperature: 39°F , 4°C
Wind Chill: 35°F , 2°C
Dew Point: 34°F , 1°C
Humidity: 81%
Barometer: 30.07 inHg , 1018.3 hPa
Visibility: 10 miles , 16 km
Cloud details: 1500 ft
2019/02/23 10:53 KBFI 231053Z 17005KT 10SM OVC015 04/01 A3007 RMK AO2 SLP182 T00390011
 
KSEA - Seattle
Updated: Sat, 23-Feb-2019 2:53am PST

 Wind from SSW
Wind: SSW 12 mph , 19 km/h
Temperature: 37°F , 3°C
Wind Chill: 29°F , -2°C
Dew Point: 34°F , 1°C
Humidity: 87%
Barometer: 30.05 inHg , 1017.6 hPa
Visibility: 10 miles , 16 km
Cloud details: 1100 ft
2000 ft
2019/02/23 10:53 KSEA 231053Z 20010KT 10SM BKN011 OVC020 03/01 A3005 RMK AO2 SLP186 T00330006
KSMP - Stampede Pass
Updated: Sat, 23-Feb-2019 3:19am PST
Mist, Overcast
Mist, Overcast
 Wind from varies
Wind: varies 5 mph , 7 km/h
Temperature: 27°F , -3°C
Wind Chill: 21°F , -6°C
Dew Point: 21°F , -6°C
Humidity: 80%
Barometer: 29.89 inHg , 1012.2 hPa
Visibility: 3/4 mile , 1.2 km
Cloud details: 300 ft
2019/02/23 11:19 KSMP 231119Z AUTO VRB04KT 3/4SM BR VV003 M03/M06 A2989 RMK AO2 SNE07 P0000 T10331056 $